sensor_id;sensor_type;location;lat;lon;timestamp;P1;durP1;ratioP1;P2;durP2;ratioP2
34134;SDS011;20410;55.578;12.968;2023-04-16T00:00:05;12.27;;;10.87;;
34134;SDS011;20410;55.578;12.968;2023-04-16T00:02:31;11.80;;;10.60;;
34134;SDS011;20410;55.578;12.968;2023-04-16T00:04:57;12.43;;;10.93;;
34134;SDS011;20410;55.578;12.968;2023-04-16T00:07:23;12.63;;;11.33;;
34134;SDS011;20410;55.578;12.968;2023-04-16T00:09:48;14.13;;;10.90;;
34134;SDS011;20410;55.578;12.968;2023-04-16T00:12:14;13.90;;;11.03;;
34134;SDS011;20410;55.578;12.968;2023-04-16T00:14:40;17.20;;;11.27;;
34134;SDS011;20410;55.578;12.968;2023-04-16T00:17:07;12.83;;;11.03;;
34134;SDS011;20410;55.578;12.968;2023-04-16T00:19:33;14.20;;;11.17;;
34134;SDS011;20410;55.578;12.968;2023-04-16T00:21:58;13.40;;;10.70;;
34134;SDS011;20410;55.578;12.968;2023-04-16T00:24:24;12.50;;;10.70;;
34134;SDS011;20410;55.578;12.968;2023-04-16T00:26:50;12.47;;;11.00;;
34134;SDS011;20410;55.578;12.968;2023-04-16T00:29:15;12.70;;;10.77;;
34134;SDS011;20410;55.578;12.968;2023-04-16T00:31:41;14.40;;;11.13;;
34134;SDS011;20410;55.578;12.968;2023-04-16T00:34:06;14.33;;;11.53;;
34134;SDS011;20410;55.578;12.968;2023-04-16T00:36:32;14.60;;;12.60;;
34134;SDS011;20410;55.578;12.968;2023-04-16T00:38:57;12.77;;;11.23;;
34134;SDS011;20410;55.578;12.968;2023-04-16T00:41:23;13.70;;;10.47;;
34134;SDS011;20410;55.578;12.968;2023-04-16T00:43:49;12.97;;;10.77;;
34134;SDS011;20410;55.578;12.968;2023-04-16T00:46:15;14.13;;;11.43;;
34134;SDS011;20410;55.578;12.968;2023-04-16T00:48:41;13.03;;;10.43;;
34134;SDS011;20410;55.578;12.968;2023-04-16T00:51:07;13.93;;;10.40;;
34134;SDS011;20410;55.578;12.968;2023-04-16T00:53:33;13.33;;;11.43;;
34134;SDS011;20410;55.578;12.968;2023-04-16T00:56:03;12.10;;;10.43;;
34134;SDS011;20410;55.578;12.968;2023-04-16T00:58:30;12.83;;;10.40;;
34134;SDS011;20410;55.578;12.968;2023-04-16T01:00:57;14.07;;;11.40;;
34134;SDS011;20410;55.578;12.968;2023-04-16T01:03:23;15.67;;;10.70;;
34134;SDS011;20410;55.578;12.968;2023-04-16T01:05:58;13.17;;;10.27;;
34134;SDS011;20410;55.578;12.968;2023-04-16T01:08:24;13.87;;;11.63;;
34134;SDS011;20410;55.578;12.968;2023-04-16T01:10:50;16.17;;;10.73;;
34134;SDS011;20410;55.578;12.968;2023-04-16T01:13:15;11.50;;;10.13;;
34134;SDS011;20410;55.578;12.968;2023-04-16T01:15:41;16.47;;;10.80;;
34134;SDS011;20410;55.578;12.968;2023-04-16T01:18:16;12.60;;;10.87;;
34134;SDS011;20410;55.578;12.968;2023-04-16T01:20:42;15.23;;;10.73;;
34134;SDS011;20410;55.578;12.968;2023-04-16T01:23:08;14.30;;;10.70;;
34134;SDS011;20410;55.578;12.968;2023-04-16T01:25:35;14.07;;;11.53;;
34134;SDS011;20410;55.578;12.968;2023-04-16T01:28:00;13.80;;;10.87;;
34134;SDS011;20410;55.578;12.968;2023-04-16T01:30:26;12.30;;;10.93;;
34134;SDS011;20410;55.578;12.968;2023-04-16T01:32:52;14.27;;;11.13;;
34134;SDS011;20410;55.578;12.968;2023-04-16T01:35:17;12.97;;;11.40;;
34134;SDS011;20410;55.578;12.968;2023-04-16T01:37:43;14.23;;;10.40;;
34134;SDS011;20410;55.578;12.968;2023-04-16T01:40:09;14.60;;;10.87;;
34134;SDS011;20410;55.578;12.968;2023-04-16T01:42:35;13.70;;;10.53;;
34134;SDS011;20410;55.578;12.968;2023-04-16T01:45:01;13.10;;;10.77;;
34134;SDS011;20410;55.578;12.968;2023-04-16T01:47:27;12.97;;;11.23;;
34134;SDS011;20410;55.578;12.968;2023-04-16T01:49:53;12.17;;;10.63;;
34134;SDS011;20410;55.578;12.968;2023-04-16T01:52:18;12.60;;;11.30;;
34134;SDS011;20410;55.578;12.968;2023-04-16T01:54:44;13.00;;;11.50;;
34134;SDS011;20410;55.578;12.968;2023-04-16T01:57:09;14.90;;;11.47;;
34134;SDS011;20410;55.578;12.968;2023-04-16T01:59:35;13.93;;;11.37;;
34134;SDS011;20410;55.578;12.968;2023-04-16T02:02:02;13.43;;;10.93;;
34134;SDS011;20410;55.578;12.968;2023-04-16T02:04:35;13.60;;;11.63;;
34134;SDS011;20410;55.578;12.968;2023-04-16T02:07:05;14.10;;;10.87;;
34134;SDS011;20410;55.578;12.968;2023-04-16T02:09:33;14.17;;;11.30;;
34134;SDS011;20410;55.578;12.968;2023-04-16T02:11:59;12.40;;;11.10;;
34134;SDS011;20410;55.578;12.968;2023-04-16T02:14:26;14.17;;;11.63;;
34134;SDS011;20410;55.578;12.968;2023-04-16T02:16:52;17.63;;;11.33;;
34134;SDS011;20410;55.578;12.968;2023-04-16T02:19:17;14.63;;;11.80;;
34134;SDS011;20410;55.578;12.968;2023-04-16T02:21:43;15.00;;;11.83;;
34134;SDS011;20410;55.578;12.968;2023-04-16T02:24:08;13.20;;;11.57;;
34134;SDS011;20410;55.578;12.968;2023-04-16T02:26:34;12.67;;;11.10;;
34134;SDS011;20410;55.578;12.968;2023-04-16T02:28:59;15.57;;;11.83;;
34134;SDS011;20410;55.578;12.968;2023-04-16T02:31:25;13.20;;;10.87;;
34134;SDS011;20410;55.578;12.968;2023-04-16T02:33:52;15.70;;;13.10;;
34134;SDS011;20410;55.578;12.968;2023-04-16T02:36:18;14.60;;;11.83;;
34134;SDS011;20410;55.578;12.968;2023-04-16T02:38:44;12.83;;;11.40;;
34134;SDS011;20410;55.578;12.968;2023-04-16T02:41:09;13.03;;;11.43;;
34134;SDS011;20410;55.578;12.968;2023-04-16T02:43:35;12.80;;;11.50;;
34134;SDS011;20410;55.578;12.968;2023-04-16T02:46:01;14.47;;;11.23;;
34134;SDS011;20410;55.578;12.968;2023-04-16T02:48:26;13.23;;;11.80;;
34134;SDS011;20410;55.578;12.968;2023-04-16T02:50:52;14.40;;;11.37;;
34134;SDS011;20410;55.578;12.968;2023-04-16T02:53:18;13.27;;;11.80;;
34134;SDS011;20410;55.578;12.968;2023-04-16T02:55:50;14.77;;;11.93;;
34134;SDS011;20410;55.578;12.968;2023-04-16T02:58:17;16.90;;;11.33;;
34134;SDS011;20410;55.578;12.968;2023-04-16T03:00:43;13.03;;;11.23;;
34134;SDS011;20410;55.578;12.968;2023-04-16T03:03:08;16.47;;;12.03;;
34134;SDS011;20410;55.578;12.968;2023-04-16T03:05:34;13.47;;;11.27;;
34134;SDS011;20410;55.578;12.968;2023-04-16T03:08:00;14.17;;;11.37;;
34134;SDS011;20410;55.578;12.968;2023-04-16T03:10:25;14.47;;;11.07;;
34134;SDS011;20410;55.578;12.968;2023-04-16T03:12:51;12.97;;;11.57;;
34134;SDS011;20410;55.578;12.968;2023-04-16T03:15:16;14.60;;;11.00;;
34134;SDS011;20410;55.578;12.968;2023-04-16T03:17:42;13.20;;;11.43;;
34134;SDS011;20410;55.578;12.968;2023-04-16T03:20:08;12.93;;;11.37;;
34134;SDS011;20410;55.578;12.968;2023-04-16T03:22:34;14.10;;;10.43;;
34134;SDS011;20410;55.578;12.968;2023-04-16T03:24:59;12.87;;;10.83;;
34134;SDS011;20410;55.578;12.968;2023-04-16T03:27:25;13.53;;;11.30;;
34134;SDS011;20410;55.578;12.968;2023-04-16T03:29:50;15.43;;;11.10;;
34134;SDS011;20410;55.578;12.968;2023-04-16T03:32:16;14.07;;;12.37;;
34134;SDS011;20410;55.578;12.968;2023-04-16T03:34:42;13.47;;;11.13;;
34134;SDS011;20410;55.578;12.968;2023-04-16T03:37:08;10.60;;;7.47;;
34134;SDS011;20410;55.578;12.968;2023-04-16T03:39:35;10.83;;;8.63;;
34134;SDS011;20410;55.578;12.968;2023-04-16T03:42:01;11.47;;;8.53;;
34134;SDS011;20410;55.578;12.968;2023-04-16T03:44:27;14.83;;;9.60;;
34134;SDS011;20410;55.578;12.968;2023-04-16T03:46:53;13.80;;;9.30;;
34134;SDS011;20410;55.578;12.968;2023-04-16T03:49:19;10.33;;;8.60;;
34134;SDS011;20410;55.578;12.968;2023-04-16T03:51:45;13.37;;;8.77;;
34134;SDS011;20410;55.578;12.968;2023-04-16T03:54:10;12.47;;;9.00;;
34134;SDS011;20410;55.578;12.968;2023-04-16T03:56:36;12.17;;;9.23;;
34134;SDS011;20410;55.578;12.968;2023-04-16T03:59:03;11.17;;;8.67;;
34134;SDS011;20410;55.578;12.968;2023-04-16T04:01:29;11.67;;;9.67;;
34134;SDS011;20410;55.578;12.968;2023-04-16T04:03:55;10.87;;;9.07;;
34134;SDS011;20410;55.578;12.968;2023-04-16T04:06:20;12.97;;;9.10;;
34134;SDS011;20410;55.578;12.968;2023-04-16T04:08:46;10.80;;;8.63;;
34134;SDS011;20410;55.578;12.968;2023-04-16T04:11:11;12.20;;;9.10;;
34134;SDS011;20410;55.578;12.968;2023-04-16T04:13:37;10.47;;;8.83;;
34134;SDS011;20410;55.578;12.968;2023-04-16T04:16:03;11.40;;;9.13;;
34134;SDS011;20410;55.578;12.968;2023-04-16T04:18:29;11.03;;;9.03;;
34134;SDS011;20410;55.578;12.968;2023-04-16T04:20:54;10.77;;;8.03;;
34134;SDS011;20410;55.578;12.968;2023-04-16T04:23:21;11.67;;;8.80;;
34134;SDS011;20410;55.578;12.968;2023-04-16T04:25:46;12.07;;;8.50;;
34134;SDS011;20410;55.578;12.968;2023-04-16T04:28:12;11.30;;;8.30;;
34134;SDS011;20410;55.578;12.968;2023-04-16T04:30:37;9.80;;;7.60;;
34134;SDS011;20410;55.578;12.968;2023-04-16T04:33:03;9.53;;;8.30;;
34134;SDS011;20410;55.578;12.968;2023-04-16T04:35:28;10.23;;;8.50;;
34134;SDS011;20410;55.578;12.968;2023-04-16T04:37:54;12.90;;;8.80;;
34134;SDS011;20410;55.578;12.968;2023-04-16T04:40:19;12.17;;;8.50;;
34134;SDS011;20410;55.578;12.968;2023-04-16T04:42:45;11.37;;;8.23;;
34134;SDS011;20410;55.578;12.968;2023-04-16T04:45:10;13.37;;;8.43;;
34134;SDS011;20410;55.578;12.968;2023-04-16T04:47:36;10.07;;;8.40;;
34134;SDS011;20410;55.578;12.968;2023-04-16T04:50:02;11.33;;;8.57;;
34134;SDS011;20410;55.578;12.968;2023-04-16T04:52:27;12.03;;;8.00;;
34134;SDS011;20410;55.578;12.968;2023-04-16T04:54:53;12.57;;;8.67;;
34134;SDS011;20410;55.578;12.968;2023-04-16T04:57:18;11.47;;;7.60;;
34134;SDS011;20410;55.578;12.968;2023-04-16T04:59:44;10.10;;;7.60;;
34134;SDS011;20410;55.578;12.968;2023-04-16T05:02:10;13.60;;;9.33;;
34134;SDS011;20410;55.578;12.968;2023-04-16T05:04:35;11.57;;;8.13;;
34134;SDS011;20410;55.578;12.968;2023-04-16T05:07:01;9.80;;;8.33;;
34134;SDS011;20410;55.578;12.968;2023-04-16T05:09:27;9.03;;;8.13;;
34134;SDS011;20410;55.578;12.968;2023-04-16T05:11:52;11.97;;;8.40;;
34134;SDS011;20410;55.578;12.968;2023-04-16T05:14:18;11.50;;;7.80;;
34134;SDS011;20410;55.578;12.968;2023-04-16T05:16:43;10.23;;;8.10;;
34134;SDS011;20410;55.578;12.968;2023-04-16T05:19:09;12.40;;;8.27;;
34134;SDS011;20410;55.578;12.968;2023-04-16T05:21:35;10.93;;;8.27;;
34134;SDS011;20410;55.578;12.968;2023-04-16T05:24:00;10.63;;;8.37;;
34134;SDS011;20410;55.578;12.968;2023-04-16T05:26:26;10.10;;;7.47;;
34134;SDS011;20410;55.578;12.968;2023-04-16T05:28:51;12.67;;;8.17;;
34134;SDS011;20410;55.578;12.968;2023-04-16T05:31:17;9.10;;;7.70;;
34134;SDS011;20410;55.578;12.968;2023-04-16T05:33:42;9.90;;;7.63;;
34134;SDS011;20410;55.578;12.968;2023-04-16T05:36:08;9.43;;;7.97;;
34134;SDS011;20410;55.578;12.968;2023-04-16T05:38:34;9.50;;;7.20;;
34134;SDS011;20410;55.578;12.968;2023-04-16T05:40:59;10.33;;;8.07;;
34134;SDS011;20410;55.578;12.968;2023-04-16T05:43:25;9.73;;;7.87;;
34134;SDS011;20410;55.578;12.968;2023-04-16T05:45:50;11.40;;;8.10;;
34134;SDS011;20410;55.578;12.968;2023-04-16T05:48:16;11.70;;;7.90;;
34134;SDS011;20410;55.578;12.968;2023-04-16T05:50:41;8.40;;;7.50;;
34134;SDS011;20410;55.578;12.968;2023-04-16T05:53:07;11.37;;;7.63;;
34134;SDS011;20410;55.578;12.968;2023-04-16T05:55:34;8.60;;;7.63;;
34134;SDS011;20410;55.578;12.968;2023-04-16T05:58:02;8.00;;;7.20;;
34134;SDS011;20410;55.578;12.968;2023-04-16T06:00:29;8.80;;;6.77;;
34134;SDS011;20410;55.578;12.968;2023-04-16T06:02:55;10.83;;;7.40;;
34134;SDS011;20410;55.578;12.968;2023-04-16T06:05:21;10.07;;;7.13;;
34134;SDS011;20410;55.578;12.968;2023-04-16T06:07:46;11.13;;;7.27;;
34134;SDS011;20410;55.578;12.968;2023-04-16T06:10:12;7.73;;;6.50;;
34134;SDS011;20410;55.578;12.968;2023-04-16T06:12:37;9.80;;;7.37;;
34134;SDS011;20410;55.578;12.968;2023-04-16T06:15:03;10.93;;;7.00;;
34134;SDS011;20410;55.578;12.968;2023-04-16T06:17:29;9.07;;;6.80;;
34134;SDS011;20410;55.578;12.968;2023-04-16T06:19:55;10.00;;;6.80;;
34134;SDS011;20410;55.578;12.968;2023-04-16T06:22:20;9.43;;;7.07;;
34134;SDS011;20410;55.578;12.968;2023-04-16T06:24:46;9.90;;;7.47;;
34134;SDS011;20410;55.578;12.968;2023-04-16T06:27:12;9.43;;;6.90;;
34134;SDS011;20410;55.578;12.968;2023-04-16T06:29:37;10.77;;;7.23;;
34134;SDS011;20410;55.578;12.968;2023-04-16T06:32:03;8.33;;;6.67;;
34134;SDS011;20410;55.578;12.968;2023-04-16T06:34:29;11.20;;;6.77;;
34134;SDS011;20410;55.578;12.968;2023-04-16T06:36:55;9.67;;;6.80;;
34134;SDS011;20410;55.578;12.968;2023-04-16T06:39:20;8.67;;;6.60;;
34134;SDS011;20410;55.578;12.968;2023-04-16T06:41:46;8.47;;;7.20;;
34134;SDS011;20410;55.578;12.968;2023-04-16T06:44:12;8.20;;;6.63;;
34134;SDS011;20410;55.578;12.968;2023-04-16T06:46:38;10.27;;;7.23;;
34134;SDS011;20410;55.578;12.968;2023-04-16T06:49:04;11.03;;;7.23;;
34134;SDS011;20410;55.578;12.968;2023-04-16T06:51:30;8.33;;;6.53;;
34134;SDS011;20410;55.578;12.968;2023-04-16T06:53:55;10.53;;;6.67;;
34134;SDS011;20410;55.578;12.968;2023-04-16T06:56:21;11.43;;;7.43;;
34134;SDS011;20410;55.578;12.968;2023-04-16T06:58:46;9.63;;;7.83;;
34134;SDS011;20410;55.578;12.968;2023-04-16T07:01:12;8.30;;;7.40;;
34134;SDS011;20410;55.578;12.968;2023-04-16T07:03:38;9.30;;;7.40;;
34134;SDS011;20410;55.578;12.968;2023-04-16T07:06:03;9.50;;;7.17;;
34134;SDS011;20410;55.578;12.968;2023-04-16T07:08:29;8.70;;;6.40;;
34134;SDS011;20410;55.578;12.968;2023-04-16T07:10:54;10.13;;;7.20;;
34134;SDS011;20410;55.578;12.968;2023-04-16T07:13:20;13.67;;;7.17;;
34134;SDS011;20410;55.578;12.968;2023-04-16T07:15:46;10.30;;;7.57;;
34134;SDS011;20410;55.578;12.968;2023-04-16T07:18:11;11.00;;;7.40;;
34134;SDS011;20410;55.578;12.968;2023-04-16T07:20:37;10.53;;;6.83;;
34134;SDS011;20410;55.578;12.968;2023-04-16T07:23:02;9.60;;;6.93;;
34134;SDS011;20410;55.578;12.968;2023-04-16T07:25:28;12.33;;;7.93;;
34134;SDS011;20410;55.578;12.968;2023-04-16T07:27:54;12.37;;;7.03;;
34134;SDS011;20410;55.578;12.968;2023-04-16T07:30:19;8.73;;;6.57;;
34134;SDS011;20410;55.578;12.968;2023-04-16T07:32:45;10.93;;;6.80;;
34134;SDS011;20410;55.578;12.968;2023-04-16T07:35:10;9.93;;;7.70;;
34134;SDS011;20410;55.578;12.968;2023-04-16T07:37:36;9.70;;;6.93;;
34134;SDS011;20410;55.578;12.968;2023-04-16T07:40:01;9.37;;;6.80;;
34134;SDS011;20410;55.578;12.968;2023-04-16T07:42:28;8.57;;;7.00;;
34134;SDS011;20410;55.578;12.968;2023-04-16T07:44:54;11.10;;;6.83;;
34134;SDS011;20410;55.578;12.968;2023-04-16T07:47:19;9.53;;;7.27;;
34134;SDS011;20410;55.578;12.968;2023-04-16T07:49:47;8.43;;;6.60;;
34134;SDS011;20410;55.578;12.968;2023-04-16T07:52:13;9.03;;;6.80;;
34134;SDS011;20410;55.578;12.968;2023-04-16T07:54:39;13.93;;;8.07;;
34134;SDS011;20410;55.578;12.968;2023-04-16T07:57:04;13.10;;;7.37;;
34134;SDS011;20410;55.578;12.968;2023-04-16T07:59:30;11.87;;;7.13;;
34134;SDS011;20410;55.578;12.968;2023-04-16T08:01:56;9.43;;;6.70;;
34134;SDS011;20410;55.578;12.968;2023-04-16T08:04:21;8.63;;;7.00;;
34134;SDS011;20410;55.578;12.968;2023-04-16T08:06:51;8.47;;;7.13;;
34134;SDS011;20410;55.578;12.968;2023-04-16T08:09:18;11.67;;;7.13;;
34134;SDS011;20410;55.578;12.968;2023-04-16T08:11:44;9.43;;;7.07;;
34134;SDS011;20410;55.578;12.968;2023-04-16T08:14:10;9.67;;;7.53;;
34134;SDS011;20410;55.578;12.968;2023-04-16T08:16:35;8.60;;;6.93;;
34134;SDS011;20410;55.578;12.968;2023-04-16T08:19:02;10.57;;;6.47;;
34134;SDS011;20410;55.578;12.968;2023-04-16T08:21:28;9.33;;;6.97;;
34134;SDS011;20410;55.578;12.968;2023-04-16T08:23:54;9.80;;;6.70;;
34134;SDS011;20410;55.578;12.968;2023-04-16T08:26:20;9.97;;;7.10;;
34134;SDS011;20410;55.578;12.968;2023-04-16T08:28:45;7.93;;;6.63;;
34134;SDS011;20410;55.578;12.968;2023-04-16T08:31:11;9.83;;;7.20;;
34134;SDS011;20410;55.578;12.968;2023-04-16T08:33:36;9.63;;;7.10;;
34134;SDS011;20410;55.578;12.968;2023-04-16T08:36:02;8.37;;;6.93;;
34134;SDS011;20410;55.578;12.968;2023-04-16T08:38:28;8.20;;;6.37;;
34134;SDS011;20410;55.578;12.968;2023-04-16T08:40:54;8.83;;;6.20;;
34134;SDS011;20410;55.578;12.968;2023-04-16T08:43:22;14.07;;;7.47;;
34134;SDS011;20410;55.578;12.968;2023-04-16T08:45:50;9.00;;;7.23;;
34134;SDS011;20410;55.578;12.968;2023-04-16T08:48:17;11.03;;;6.60;;
34134;SDS011;20410;55.578;12.968;2023-04-16T08:50:46;8.57;;;6.43;;
34134;SDS011;20410;55.578;12.968;2023-04-16T08:53:17;8.63;;;6.57;;
34134;SDS011;20410;55.578;12.968;2023-04-16T08:55:46;10.00;;;6.50;;
34134;SDS011;20410;55.578;12.968;2023-04-16T08:58:13;10.87;;;7.07;;
34134;SDS011;20410;55.578;12.968;2023-04-16T09:00:43;8.47;;;6.57;;
34134;SDS011;20410;55.578;12.968;2023-04-16T09:03:10;10.33;;;7.03;;
34134;SDS011;20410;55.578;12.968;2023-04-16T09:05:36;11.07;;;6.30;;
34134;SDS011;20410;55.578;12.968;2023-04-16T09:08:05;10.90;;;7.27;;
34134;SDS011;20410;55.578;12.968;2023-04-16T09:10:31;9.77;;;6.70;;
34134;SDS011;20410;55.578;12.968;2023-04-16T09:12:58;11.40;;;6.87;;
34134;SDS011;20410;55.578;12.968;2023-04-16T09:15:24;8.00;;;6.70;;
34134;SDS011;20410;55.578;12.968;2023-04-16T09:17:50;11.53;;;6.90;;
34134;SDS011;20410;55.578;12.968;2023-04-16T09:20:17;9.57;;;6.90;;
34134;SDS011;20410;55.578;12.968;2023-04-16T09:22:43;9.73;;;6.57;;
34134;SDS011;20410;55.578;12.968;2023-04-16T09:25:09;9.77;;;6.63;;
34134;SDS011;20410;55.578;12.968;2023-04-16T09:27:35;11.20;;;7.07;;
34134;SDS011;20410;55.578;12.968;2023-04-16T09:30:02;9.67;;;6.57;;
34134;SDS011;20410;55.578;12.968;2023-04-16T09:32:45;8.23;;;6.80;;
34134;SDS011;20410;55.578;12.968;2023-04-16T09:35:11;9.47;;;7.03;;
34134;SDS011;20410;55.578;12.968;2023-04-16T09:37:37;9.63;;;6.80;;
34134;SDS011;20410;55.578;12.968;2023-04-16T09:40:03;8.93;;;6.63;;
34134;SDS011;20410;55.578;12.968;2023-04-16T09:42:30;10.77;;;6.73;;
34134;SDS011;20410;55.578;12.968;2023-04-16T09:44:57;10.23;;;6.57;;
34134;SDS011;20410;55.578;12.968;2023-04-16T09:47:37;9.97;;;6.67;;
34134;SDS011;20410;55.578;12.968;2023-04-16T09:50:04;7.97;;;6.47;;
34134;SDS011;20410;55.578;12.968;2023-04-16T09:52:31;13.40;;;7.43;;
34134;SDS011;20410;55.578;12.968;2023-04-16T09:55:01;9.23;;;6.97;;
34134;SDS011;20410;55.578;12.968;2023-04-16T09:57:27;7.63;;;6.20;;
34134;SDS011;20410;55.578;12.968;2023-04-16T09:59:54;9.17;;;6.33;;
34134;SDS011;20410;55.578;12.968;2023-04-16T10:02:26;11.07;;;7.07;;
34134;SDS011;20410;55.578;12.968;2023-04-16T10:04:52;9.93;;;6.80;;
34134;SDS011;20410;55.578;12.968;2023-04-16T10:07:18;10.07;;;6.87;;
34134;SDS011;20410;55.578;12.968;2023-04-16T10:09:48;10.87;;;6.70;;
34134;SDS011;20410;55.578;12.968;2023-04-16T10:12:14;11.07;;;6.60;;
34134;SDS011;20410;55.578;12.968;2023-04-16T10:14:40;10.53;;;6.90;;
34134;SDS011;20410;55.578;12.968;2023-04-16T10:17:09;10.30;;;6.87;;
34134;SDS011;20410;55.578;12.968;2023-04-16T10:19:35;8.40;;;6.73;;
34134;SDS011;20410;55.578;12.968;2023-04-16T10:22:01;9.50;;;6.37;;
34134;SDS011;20410;55.578;12.968;2023-04-16T10:24:28;12.37;;;7.17;;
34134;SDS011;20410;55.578;12.968;2023-04-16T10:26:55;9.97;;;6.70;;
34134;SDS011;20410;55.578;12.968;2023-04-16T10:29:21;7.83;;;5.93;;
34134;SDS011;20410;55.578;12.968;2023-04-16T10:31:48;9.83;;;6.83;;
34134;SDS011;20410;55.578;12.968;2023-04-16T10:34:15;9.83;;;6.53;;
34134;SDS011;20410;55.578;12.968;2023-04-16T10:36:41;12.20;;;6.87;;
34134;SDS011;20410;55.578;12.968;2023-04-16T10:39:10;10.03;;;6.60;;
34134;SDS011;20410;55.578;12.968;2023-04-16T10:41:37;10.10;;;6.43;;
34134;SDS011;20410;55.578;12.968;2023-04-16T10:44:07;10.07;;;6.03;;
34134;SDS011;20410;55.578;12.968;2023-04-16T10:46:40;9.17;;;6.97;;
34134;SDS011;20410;55.578;12.968;2023-04-16T10:49:28;10.77;;;6.90;;
34134;SDS011;20410;55.578;12.968;2023-04-16T10:52:00;8.43;;;6.30;;
34134;SDS011;20410;55.578;12.968;2023-04-16T10:54:33;8.60;;;6.00;;
34134;SDS011;20410;55.578;12.968;2023-04-16T10:57:04;8.33;;;6.70;;
34134;SDS011;20410;55.578;12.968;2023-04-16T10:59:32;10.57;;;6.77;;
34134;SDS011;20410;55.578;12.968;2023-04-16T11:02:00;10.73;;;6.63;;
34134;SDS011;20410;55.578;12.968;2023-04-16T11:04:34;11.87;;;6.80;;
34134;SDS011;20410;55.578;12.968;2023-04-16T11:09:50;8.33;;;6.23;;
34134;SDS011;20410;55.578;12.968;2023-04-16T11:12:21;7.30;;;6.37;;
34134;SDS011;20410;55.578;12.968;2023-04-16T11:14:57;8.70;;;7.00;;
34134;SDS011;20410;55.578;12.968;2023-04-16T11:17:32;11.10;;;7.00;;
34134;SDS011;20410;55.578;12.968;2023-04-16T11:20:07;8.63;;;6.90;;
34134;SDS011;20410;55.578;12.968;2023-04-16T11:22:39;8.80;;;6.17;;
34134;SDS011;20410;55.578;12.968;2023-04-16T11:25:06;10.17;;;7.20;;
34134;SDS011;20410;55.578;12.968;2023-04-16T11:27:32;9.23;;;7.23;;
34134;SDS011;20410;55.578;12.968;2023-04-16T11:30:01;12.27;;;7.23;;
34134;SDS011;20410;55.578;12.968;2023-04-16T11:32:32;9.30;;;6.93;;
34134;SDS011;20410;55.578;12.968;2023-04-16T11:34:59;10.63;;;6.73;;
34134;SDS011;20410;55.578;12.968;2023-04-16T11:37:32;9.10;;;6.97;;
34134;SDS011;20410;55.578;12.968;2023-04-16T11:39:58;10.40;;;6.83;;
34134;SDS011;20410;55.578;12.968;2023-04-16T11:42:25;9.07;;;6.97;;
34134;SDS011;20410;55.578;12.968;2023-04-16T11:44:55;10.63;;;7.23;;
34134;SDS011;20410;55.578;12.968;2023-04-16T11:47:24;8.70;;;7.07;;
34134;SDS011;20410;55.578;12.968;2023-04-16T11:49:50;9.57;;;7.10;;
34134;SDS011;20410;55.578;12.968;2023-04-16T11:52:30;11.67;;;8.03;;
34134;SDS011;20410;55.578;12.968;2023-04-16T11:54:56;9.17;;;6.80;;
34134;SDS011;20410;55.578;12.968;2023-04-16T11:57:23;10.07;;;7.33;;
34134;SDS011;20410;55.578;12.968;2023-04-16T11:59:50;9.47;;;7.63;;
34134;SDS011;20410;55.578;12.968;2023-04-16T12:02:16;9.63;;;7.10;;
34134;SDS011;20410;55.578;12.968;2023-04-16T12:04:41;12.87;;;7.10;;
34134;SDS011;20410;55.578;12.968;2023-04-16T12:09:32;10.50;;;7.67;;
34134;SDS011;20410;55.578;12.968;2023-04-16T12:11:59;9.13;;;7.33;;
34134;SDS011;20410;55.578;12.968;2023-04-16T12:14:26;10.73;;;7.80;;
34134;SDS011;20410;55.578;12.968;2023-04-16T12:16:52;12.83;;;7.97;;
34134;SDS011;20410;55.578;12.968;2023-04-16T12:19:17;9.73;;;7.30;;
34134;SDS011;20410;55.578;12.968;2023-04-16T12:21:47;10.77;;;7.00;;
34134;SDS011;20410;55.578;12.968;2023-04-16T12:24:15;10.80;;;7.30;;
34134;SDS011;20410;55.578;12.968;2023-04-16T12:26:45;11.73;;;7.13;;
34134;SDS011;20410;55.578;12.968;2023-04-16T12:31:46;11.13;;;7.00;;
34134;SDS011;20410;55.578;12.968;2023-04-16T12:34:13;9.90;;;7.13;;
34134;SDS011;20410;55.578;12.968;2023-04-16T12:36:42;9.67;;;7.00;;
34134;SDS011;20410;55.578;12.968;2023-04-16T12:39:09;8.37;;;7.00;;
34134;SDS011;20410;55.578;12.968;2023-04-16T12:41:38;9.87;;;6.17;;
34134;SDS011;20410;55.578;12.968;2023-04-16T12:44:06;12.00;;;6.73;;
34134;SDS011;20410;55.578;12.968;2023-04-16T12:46:42;8.63;;;6.53;;
34134;SDS011;20410;55.578;12.968;2023-04-16T12:49:09;9.00;;;7.13;;
34134;SDS011;20410;55.578;12.968;2023-04-16T12:51:35;10.17;;;7.23;;
34134;SDS011;20410;55.578;12.968;2023-04-16T12:54:02;9.30;;;6.93;;
34134;SDS011;20410;55.578;12.968;2023-04-16T12:56:29;8.07;;;6.90;;
34134;SDS011;20410;55.578;12.968;2023-04-16T12:58:55;10.83;;;7.37;;
34134;SDS011;20410;55.578;12.968;2023-04-16T13:01:21;9.23;;;7.20;;
34134;SDS011;20410;55.578;12.968;2023-04-16T13:03:47;11.80;;;7.30;;
34134;SDS011;20410;55.578;12.968;2023-04-16T13:06:14;10.20;;;6.43;;
34134;SDS011;20410;55.578;12.968;2023-04-16T13:08:40;9.37;;;6.70;;
34134;SDS011;20410;55.578;12.968;2023-04-16T13:11:09;9.27;;;6.77;;
34134;SDS011;20410;55.578;12.968;2023-04-16T13:13:35;12.33;;;7.40;;
34134;SDS011;20410;55.578;12.968;2023-04-16T13:16:01;8.83;;;6.53;;
34134;SDS011;20410;55.578;12.968;2023-04-16T13:18:33;10.27;;;6.90;;
34134;SDS011;20410;55.578;12.968;2023-04-16T13:21:04;8.97;;;6.23;;
34134;SDS011;20410;55.578;12.968;2023-04-16T13:23:29;10.40;;;6.70;;
34134;SDS011;20410;55.578;12.968;2023-04-16T13:25:55;8.83;;;6.90;;
34134;SDS011;20410;55.578;12.968;2023-04-16T13:28:21;8.30;;;6.33;;
34134;SDS011;20410;55.578;12.968;2023-04-16T13:30:46;9.63;;;6.93;;
34134;SDS011;20410;55.578;12.968;2023-04-16T13:33:12;10.33;;;6.60;;
34134;SDS011;20410;55.578;12.968;2023-04-16T13:35:38;11.77;;;6.70;;
34134;SDS011;20410;55.578;12.968;2023-04-16T13:38:03;8.27;;;6.07;;
34134;SDS011;20410;55.578;12.968;2023-04-16T13:40:29;10.03;;;6.47;;
34134;SDS011;20410;55.578;12.968;2023-04-16T13:42:55;10.23;;;6.30;;
34134;SDS011;20410;55.578;12.968;2023-04-16T13:45:20;8.77;;;6.17;;
34134;SDS011;20410;55.578;12.968;2023-04-16T13:47:46;10.50;;;7.10;;
34134;SDS011;20410;55.578;12.968;2023-04-16T13:50:12;8.87;;;6.33;;
34134;SDS011;20410;55.578;12.968;2023-04-16T13:52:38;8.67;;;5.80;;
34134;SDS011;20410;55.578;12.968;2023-04-16T13:55:03;7.63;;;6.27;;
34134;SDS011;20410;55.578;12.968;2023-04-16T13:57:29;8.63;;;6.17;;
34134;SDS011;20410;55.578;12.968;2023-04-16T13:59:56;9.03;;;5.80;;
34134;SDS011;20410;55.578;12.968;2023-04-16T14:02:21;8.37;;;5.97;;
34134;SDS011;20410;55.578;12.968;2023-04-16T14:04:47;9.50;;;6.80;;
34134;SDS011;20410;55.578;12.968;2023-04-16T14:07:13;10.77;;;7.17;;
34134;SDS011;20410;55.578;12.968;2023-04-16T14:09:39;11.00;;;7.00;;
34134;SDS011;20410;55.578;12.968;2023-04-16T14:12:05;14.77;;;6.93;;
34134;SDS011;20410;55.578;12.968;2023-04-16T14:14:31;8.80;;;6.03;;
34134;SDS011;20410;55.578;12.968;2023-04-16T14:16:57;10.50;;;6.20;;
34134;SDS011;20410;55.578;12.968;2023-04-16T14:19:23;9.80;;;6.47;;
34134;SDS011;20410;55.578;12.968;2023-04-16T14:21:48;11.23;;;6.50;;
34134;SDS011;20410;55.578;12.968;2023-04-16T14:24:14;7.50;;;5.70;;
34134;SDS011;20410;55.578;12.968;2023-04-16T14:26:41;7.80;;;6.27;;